createdAt,value
2023-11-08T00:02:12.917Z,5.40
2023-11-08T00:05:09.119Z,4.90
2023-11-08T00:08:05.797Z,5.50
2023-11-08T00:11:00.766Z,5.30
2023-11-08T00:13:46.164Z,5.30
2023-11-08T00:16:40.717Z,5.00
2023-11-08T00:19:35.023Z,5.80
2023-11-08T00:22:27.414Z,5.10
2023-11-08T00:25:20.079Z,5.80
2023-11-08T00:28:12.591Z,5.90
2023-11-08T00:31:11.341Z,6.70
2023-11-08T00:34:05.367Z,7.30
2023-11-08T00:37:01.382Z,8.50
2023-11-08T00:39:53.699Z,8.10
2023-11-08T00:42:46.901Z,7.70
2023-11-08T00:45:39.756Z,7.00
2023-11-08T00:48:38.026Z,7.00
2023-11-08T00:51:31.575Z,7.10
2023-11-08T00:54:24.519Z,7.10
2023-11-08T00:57:03.457Z,7.20
2023-11-08T00:59:56.206Z,7.40
2023-11-08T01:02:49.171Z,8.00
2023-11-08T01:05:43.242Z,7.70
2023-11-08T01:08:37.805Z,8.00
2023-11-08T01:11:37.124Z,7.80
2023-11-08T01:14:29.831Z,7.50
2023-11-08T01:17:22.582Z,7.70
2023-11-08T01:20:06.766Z,7.30
2023-11-08T01:23:23.197Z,6.90
2023-11-08T01:26:16.346Z,7.20
2023-11-08T01:29:09.173Z,6.70
2023-11-08T01:31:55.313Z,6.90
2023-11-08T01:34:50.348Z,7.20
2023-11-08T01:37:43.804Z,8.00
2023-11-08T01:40:37.701Z,7.30
2023-11-08T01:43:34.727Z,6.90
2023-11-08T01:46:29.031Z,10.10
2023-11-08T01:49:22.155Z,8.80
2023-11-08T01:52:14.874Z,9.40
2023-11-08T01:54:57.809Z,8.50
2023-11-08T01:57:49.845Z,8.30
2023-11-08T02:00:39.958Z,8.00
2023-11-08T02:03:57.003Z,6.40
2023-11-08T02:06:50.985Z,6.60
2023-11-08T02:09:46.848Z,6.20
2023-11-08T02:12:44.056Z,6.50
2023-11-08T02:15:44.613Z,5.10
2023-11-08T02:18:37.577Z,5.90
2023-11-08T02:21:30.162Z,6.00
2023-11-08T02:24:24.047Z,6.40
2023-11-08T02:27:17.399Z,6.30
2023-11-08T02:30:15.924Z,5.90
2023-11-08T02:36:05.300Z,5.30
2023-11-08T02:38:58.132Z,5.20
2023-11-08T02:41:51.862Z,5.20
2023-11-08T02:44:41.072Z,5.10
2023-11-08T02:47:34.629Z,5.50
2023-11-08T02:50:21.432Z,5.20
2023-11-08T02:53:14.277Z,5.70
2023-11-08T02:56:07.679Z,5.40
2023-11-08T02:59:00.225Z,5.00
2023-11-08T03:01:57.165Z,5.30
2023-11-08T03:04:52.584Z,5.60
2023-11-08T03:07:46.134Z,5.00
2023-11-08T03:10:43.501Z,5.80
2023-11-08T03:13:37.044Z,5.40
2023-11-08T03:16:30.018Z,5.50
2023-11-08T03:19:22.516Z,6.10
2023-11-08T03:22:15.313Z,5.60
2023-11-08T03:25:25.268Z,5.50
2023-11-08T03:28:17.889Z,5.60
2023-11-08T03:31:16.669Z,5.00
2023-11-08T03:34:05.443Z,5.90
2023-11-08T03:37:00.323Z,5.50
2023-11-08T03:39:54.476Z,6.10
2023-11-08T03:42:47.888Z,5.50
2023-11-08T03:45:43.660Z,5.80
2023-11-08T03:48:37.109Z,5.90
2023-11-08T03:51:30.124Z,6.20
2023-11-08T03:54:24.233Z,6.10
2023-11-08T03:57:19.867Z,5.40
2023-11-08T04:00:17.838Z,5.30
2023-11-08T04:03:09.473Z,5.70
2023-11-08T04:06:02.419Z,6.40
2023-11-08T04:08:55.194Z,5.90
2023-11-08T04:11:47.829Z,4.90
2023-11-08T04:14:41.707Z,5.90
2023-11-08T04:17:37.032Z,5.30
2023-11-08T04:20:30.508Z,5.50
2023-11-08T04:23:23.208Z,5.20
2023-11-08T04:26:15.911Z,5.50
2023-11-08T04:29:08.727Z,5.70
2023-11-08T04:32:01.554Z,5.40
2023-11-08T04:34:40.480Z,5.50
2023-11-08T04:37:16.737Z,4.70
2023-11-08T04:40:19.423Z,4.10
2023-11-08T04:43:12.177Z,5.60
2023-11-08T04:46:05.428Z,5.30
2023-11-08T04:49:00.411Z,5.20
2023-11-08T04:51:53.444Z,5.00
2023-11-08T04:54:54.115Z,6.20
2023-11-08T04:57:48.166Z,5.40
2023-11-08T05:00:41.433Z,5.30
2023-11-08T05:03:34.364Z,5.60
2023-11-08T05:06:29.964Z,5.60
2023-11-08T05:09:22.932Z,5.70
2023-11-08T05:12:17.388Z,5.70
2023-11-08T05:15:12.019Z,5.70
2023-11-08T05:18:05.712Z,5.80
2023-11-08T06:07:49.389Z,5.40
2023-11-08T06:10:37.729Z,5.30
2023-11-08T06:13:39.113Z,5.90
2023-11-08T06:16:32.255Z,5.90
2023-11-08T06:19:35.513Z,6.00
2023-11-08T06:22:28.381Z,5.80
2023-11-08T06:25:24.264Z,8.00
2023-11-08T06:28:20.039Z,7.50
2023-11-08T06:31:12.701Z,16.80
2023-11-08T06:34:08.259Z,14.60
2023-11-08T06:37:00.786Z,11.50
2023-11-08T06:39:53.427Z,10.90
2023-11-08T06:42:47.400Z,8.30
2023-11-08T06:45:40.987Z,6.00
2023-11-08T06:48:41.577Z,7.10
2023-11-08T06:51:38.669Z,6.50
2023-11-08T06:54:32.262Z,30.00
2023-11-08T06:57:14.913Z,29.20
2023-11-08T07:00:12.378Z,26.60
2023-11-08T07:02:57.676Z,38.00
2023-11-08T07:05:43.800Z,59.50
2023-11-08T07:08:37.658Z,15.00
2023-11-08T07:11:35.777Z,7.70
2023-11-08T07:14:29.181Z,5.40
2023-11-08T07:17:21.769Z,6.90
2023-11-08T07:20:15.776Z,5.90
2023-11-08T07:23:12.266Z,6.60
2023-11-08T07:26:05.366Z,5.40
2023-11-08T07:29:23.422Z,5.30
2023-11-08T07:32:16.671Z,5.30
2023-11-08T07:35:12.602Z,5.60
2023-11-08T07:38:06.184Z,6.30
2023-11-08T07:41:02.914Z,5.90
2023-11-08T07:43:57.845Z,5.90
2023-11-08T07:46:52.449Z,5.80
2023-11-08T07:49:41.517Z,5.10
2023-11-08T07:52:35.873Z,5.80
2023-11-08T07:55:33.246Z,6.30
2023-11-08T07:58:26.779Z,6.00
2023-11-08T08:01:22.503Z,5.10
2023-11-08T08:04:36.700Z,5.60
2023-11-08T08:07:29.749Z,5.20
2023-11-08T08:10:23.802Z,5.40
2023-11-08T08:13:27.879Z,5.30
2023-11-08T08:16:29.670Z,5.40
2023-11-08T08:19:24.278Z,4.70
2023-11-08T08:22:22.101Z,4.80
2023-11-08T08:25:15.308Z,4.70
2023-11-08T08:28:08.404Z,5.00
2023-11-08T08:31:11.420Z,4.80
2023-11-08T10:11:49.823Z,3.40
2023-11-08T10:14:41.303Z,3.50
2023-11-08T10:19:29.991Z,3.90
2023-11-08T10:20:59.998Z,3.80
2023-11-08T10:23:55.797Z,3.10
2023-11-08T10:26:38.934Z,2.50
2023-11-08T10:29:28.364Z,2.90
2023-11-08T10:32:21.052Z,3.00
2023-11-08T10:35:18.933Z,3.40
2023-11-08T10:38:11.309Z,3.30
2023-11-08T10:41:00.166Z,3.40
2023-11-08T10:43:40.173Z,3.20
2023-11-08T10:46:29.350Z,3.60
2023-11-08T10:49:19.031Z,3.30
2023-11-08T10:52:11.507Z,3.50
2023-11-08T10:55:03.740Z,3.80
2023-11-08T10:57:55.056Z,3.50
2023-11-08T11:00:44.847Z,3.60
2023-11-08T11:03:37.560Z,4.30
2023-11-08T11:06:27.077Z,4.40
2023-11-08T11:09:45.604Z,4.40
2023-11-08T11:12:47.985Z,2.90
2023-11-08T11:15:44.224Z,3.90
2023-11-08T11:18:40.091Z,3.30
2023-11-08T11:21:36.295Z,3.40
2023-11-08T11:24:40.045Z,2.80
2023-11-08T11:27:48.187Z,3.50
2023-11-08T11:30:38.223Z,2.30
2023-11-08T11:33:35.551Z,3.80
2023-11-08T11:36:24.686Z,3.00
2023-11-08T11:39:19.808Z,3.30
2023-11-08T11:42:13.551Z,3.00
2023-11-08T11:45:06.116Z,2.70
2023-11-08T11:47:53.517Z,2.60
2023-11-08T11:50:32.708Z,3.00
2023-11-08T11:53:23.350Z,2.80
2023-11-08T11:56:13.298Z,2.10
2023-11-08T12:01:50.646Z,1.70
2023-11-08T12:04:40.815Z,1.60
2023-11-08T12:07:30.171Z,2.10
2023-11-08T12:10:23.356Z,2.20
2023-11-08T12:13:12.188Z,2.30
2023-11-08T12:16:02.030Z,2.20
2023-11-08T12:18:52.917Z,1.70
2023-11-08T12:21:44.418Z,1.80
2023-11-08T12:24:33.849Z,2.10
2023-11-08T12:27:24.705Z,2.30
2023-11-08T12:30:14.195Z,1.70
2023-11-08T12:33:03.719Z,2.30
2023-11-08T12:35:53.590Z,1.90
2023-11-08T12:38:44.006Z,2.40
2023-11-08T12:41:43.471Z,2.30
2023-11-08T12:44:26.272Z,2.40
2023-11-08T12:47:00.409Z,1.80
2023-11-08T12:49:49.381Z,2.20
2023-11-08T12:52:48.499Z,2.50
2023-11-08T12:55:42.032Z,2.10
2023-11-08T12:58:33.710Z,1.50
2023-11-08T13:01:22.820Z,2.20
2023-11-08T13:04:13.094Z,2.10
2023-11-08T13:07:04.004Z,2.00
2023-11-08T13:09:53.089Z,2.60
2023-11-08T13:12:42.758Z,2.80
2023-11-08T13:15:31.779Z,2.60
2023-11-08T13:18:20.992Z,2.80
2023-11-08T13:21:10.221Z,2.20
2023-11-08T13:24:04.772Z,2.70
2023-11-08T13:26:49.301Z,2.80
2023-11-08T13:29:38.861Z,2.60
2023-11-08T13:32:29.496Z,2.90
2023-11-08T13:35:20.070Z,2.70
2023-11-08T13:38:11.390Z,2.70
2023-11-08T13:41:00.662Z,2.40
2023-11-08T13:43:39.643Z,2.70
2023-11-08T13:46:29.589Z,1.90
2023-11-08T13:49:18.554Z,2.80
2023-11-08T13:52:09.942Z,2.10
2023-11-08T13:54:59.976Z,2.80
2023-11-08T13:57:50.378Z,3.40
2023-11-08T14:00:47.055Z,3.10
2023-11-08T14:03:29.298Z,3.50
2023-11-08T14:06:18.359Z,3.10
2023-11-08T14:09:07.960Z,3.20
2023-11-08T14:11:57.360Z,3.10
2023-11-08T14:14:28.676Z,2.80
2023-11-08T14:17:39.891Z,2.30
2023-11-08T14:20:38.024Z,2.90
2023-11-08T14:23:28.281Z,2.60
2023-11-08T14:26:10.994Z,2.70
2023-11-08T14:29:00.128Z,2.80
2023-11-08T14:31:49.225Z,3.40
2023-11-08T14:34:39.717Z,3.20
2023-11-08T14:37:30.420Z,3.10
2023-11-08T14:40:20.704Z,3.10
2023-11-08T14:43:14.887Z,2.80
2023-11-08T14:46:04.801Z,2.90
2023-11-08T14:48:54.612Z,3.80
2023-11-08T14:51:48.624Z,3.50
2023-11-08T14:54:38.866Z,4.20
2023-11-08T14:57:19.357Z,3.80
2023-11-08T15:00:12.166Z,3.30
2023-11-08T15:03:05.918Z,2.60
2023-11-08T15:05:55.687Z,3.40
2023-11-08T15:09:51.048Z,4.20
2023-11-08T15:11:55.303Z,4.60
2023-11-08T15:14:48.004Z,5.10
2023-11-08T15:17:39.815Z,4.10
2023-11-08T15:20:21.715Z,5.10
2023-11-08T15:23:11.049Z,3.80
2023-11-08T15:26:01.916Z,4.00
2023-11-08T15:28:51.416Z,2.90
2023-11-08T15:31:33.239Z,3.30
2023-11-08T15:34:24.596Z,3.60
2023-11-08T15:37:13.501Z,2.90
2023-11-08T15:40:12.023Z,3.20
2023-11-08T15:43:00.761Z,4.00
2023-11-08T15:45:49.936Z,4.00
2023-11-08T15:48:40.578Z,3.70
2023-11-08T15:51:30.466Z,3.30
2023-11-08T15:54:42.614Z,3.50
2023-11-08T15:57:31.922Z,3.90
2023-11-08T16:00:21.874Z,4.50
2023-11-08T16:03:24.573Z,3.90
2023-11-08T16:06:29.538Z,3.90
2023-11-08T16:09:20.058Z,4.20
2023-11-08T16:12:10.273Z,3.60
2023-11-08T16:14:59.737Z,4.10
2023-11-08T16:17:53.632Z,4.60
2023-11-08T16:20:47.190Z,4.00
2023-11-08T16:23:59.794Z,4.40
2023-11-08T16:26:53.158Z,4.30
2023-11-08T16:29:51.503Z,4.80
2023-11-08T16:32:47.164Z,4.30
2023-11-08T16:35:44.765Z,4.40
2023-11-08T16:38:35.990Z,4.20
2023-11-08T16:42:12.912Z,3.50
2023-11-08T16:44:41.222Z,3.40
2023-11-08T16:47:33.962Z,3.20
2023-11-08T16:51:23.130Z,3.30
2023-11-08T16:53:47.458Z,3.40
2023-11-08T16:56:42.650Z,3.30
2023-11-08T16:59:38.695Z,3.20
2023-11-08T17:02:30.554Z,4.00
2023-11-08T17:05:20.232Z,3.90
2023-11-08T17:08:10.260Z,4.10
2023-11-08T17:11:00.549Z,4.20
2023-11-08T17:13:50.380Z,4.20
2023-11-08T17:16:39.678Z,3.80
2023-11-08T17:19:29.514Z,5.00
2023-11-08T17:22:18.964Z,4.50
2023-11-08T17:25:11.438Z,4.80
2023-11-08T17:28:16.969Z,4.60
2023-11-08T17:31:07.918Z,4.50
2023-11-08T17:33:57.363Z,4.80
2023-11-08T17:36:47.829Z,4.80
2023-11-08T17:39:39.904Z,5.00
2023-11-08T17:42:32.289Z,4.60
2023-11-08T17:45:48.063Z,4.00
2023-11-08T17:48:45.169Z,4.90
2023-11-08T17:51:38.191Z,4.40
2023-11-08T17:54:32.194Z,5.50
2023-11-08T17:57:25.270Z,5.40
2023-11-08T18:00:20.444Z,5.00
2023-11-08T18:03:10.323Z,5.20
2023-11-08T18:06:09.296Z,5.80
2023-11-08T18:09:01.879Z,7.40
2023-11-08T18:11:59.427Z,6.60
2023-11-08T18:14:51.536Z,6.40
2023-11-08T18:17:44.391Z,6.40
2023-11-08T18:20:44.402Z,6.60
2023-11-08T18:23:26.864Z,6.10
2023-11-08T18:26:20.249Z,5.10
2023-11-08T18:29:09.500Z,5.60
2023-11-08T18:32:01.144Z,5.30
2023-11-08T18:35:36.235Z,5.50
2023-11-08T18:38:04.249Z,4.60
2023-11-08T18:41:04.657Z,5.80
2023-11-08T18:43:54.805Z,5.80
2023-11-08T18:46:44.632Z,6.50
2023-11-08T18:49:34.252Z,6.10
2023-11-08T18:52:27.595Z,6.00
2023-11-08T18:55:17.071Z,6.10
2023-11-08T18:58:13.350Z,5.90
2023-11-08T19:01:29.812Z,5.30
2023-11-08T19:04:36.644Z,5.80
2023-11-08T19:07:30.786Z,5.80
2023-11-08T19:10:30.287Z,5.70
2023-11-08T19:13:29.757Z,8.00
2023-11-08T19:16:19.452Z,10.90
2023-11-08T19:19:08.956Z,9.10
2023-11-08T19:21:53.529Z,6.80
2023-11-08T19:24:42.666Z,7.40
2023-11-08T19:28:01.243Z,8.80
2023-11-08T19:30:50.857Z,10.90
2023-11-08T19:33:40.178Z,11.80
2023-11-08T19:36:29.460Z,10.60
2023-11-08T19:39:18.472Z,9.80
2023-11-08T19:42:09.441Z,10.30
2023-11-08T19:45:00.510Z,8.30
2023-11-08T19:47:50.089Z,12.90
2023-11-08T19:50:42.429Z,12.10
2023-11-08T19:54:18.315Z,9.70
2023-11-08T19:56:47.021Z,10.30
2023-11-08T19:59:59.281Z,10.40
2023-11-08T20:02:48.712Z,8.50
2023-11-08T20:06:00.985Z,8.70
2023-11-08T20:08:54.718Z,6.20
2023-11-08T20:12:05.046Z,5.70
2023-11-08T20:14:54.686Z,6.10
2023-11-08T20:17:47.661Z,12.00
2023-11-08T20:20:59.103Z,8.10
2023-11-08T20:25:08.151Z,11.40
2023-11-08T20:27:29.817Z,7.40
2023-11-08T20:30:21.023Z,4.60
2023-11-08T20:33:10.135Z,6.90
2023-11-08T20:36:05.124Z,5.00
2023-11-08T20:38:49.585Z,6.60
2023-11-08T20:41:38.846Z,6.10
2023-11-08T20:44:30.570Z,5.40
2023-11-08T20:47:20.439Z,5.50
2023-11-08T20:50:11.460Z,5.50
2023-11-08T20:53:01.001Z,5.90
2023-11-08T20:56:10.493Z,5.70
2023-11-08T20:59:03.981Z,5.50
2023-11-08T21:01:45.967Z,5.90
2023-11-08T21:04:36.896Z,5.50
2023-11-08T21:07:31.440Z,5.60
2023-11-08T21:10:21.673Z,5.90
2023-11-08T21:13:15.947Z,5.70
2023-11-08T21:16:08.403Z,5.90
2023-11-08T21:19:02.492Z,5.90
2023-11-08T21:21:56.607Z,5.80
2023-11-08T21:24:49.324Z,5.90
2023-11-08T21:27:39.410Z,5.80
2023-11-08T21:30:33.293Z,5.80
2023-11-08T21:33:13.035Z,4.90
2023-11-08T21:36:05.742Z,6.70
2023-11-08T21:38:57.629Z,5.20
2023-11-08T21:41:39.629Z,5.70
2023-11-08T21:44:31.390Z,6.10
2023-11-08T21:47:20.714Z,5.60
2023-11-08T21:50:10.983Z,4.20
2023-11-08T21:53:02.761Z,5.30
2023-11-08T21:58:45.989Z,4.10
2023-11-08T22:01:44.164Z,4.70
2023-11-08T22:04:26.444Z,5.00
2023-11-08T22:07:18.316Z,4.20
2023-11-08T22:10:13.143Z,4.40
2023-11-08T22:13:04.483Z,4.50
2023-11-08T22:15:59.525Z,4.30
2023-11-08T22:18:41.571Z,5.20
2023-11-08T22:21:32.235Z,4.10
2023-11-08T22:24:14.921Z,5.00
2023-11-08T22:27:07.090Z,5.60
2023-11-08T22:29:56.605Z,5.00
2023-11-08T22:32:45.957Z,4.80
2023-11-08T22:35:43.020Z,4.80
2023-11-08T22:38:35.111Z,4.70
2023-11-08T22:41:28.133Z,4.80
2023-11-08T22:44:17.050Z,4.90
2023-11-08T22:47:06.828Z,5.20
2023-11-08T22:49:51.423Z,5.00
2023-11-08T22:52:40.361Z,5.20
2023-11-08T22:55:31.037Z,4.70
2023-11-08T22:58:22.249Z,5.70
2023-11-08T23:01:26.033Z,4.90
2023-11-08T23:05:02.805Z,6.10
2023-11-08T23:07:26.952Z,5.30
2023-11-08T23:10:17.191Z,5.00
2023-11-08T23:13:06.643Z,5.00
2023-11-08T23:15:56.436Z,5.90
2023-11-08T23:18:46.278Z,5.40
2023-11-08T23:21:32.197Z,5.60
2023-11-08T23:24:24.278Z,5.70
2023-11-08T23:27:13.592Z,5.60
2023-11-08T23:30:03.177Z,5.20
2023-11-08T23:32:52.612Z,7.00
2023-11-08T23:35:42.320Z,5.90
2023-11-08T23:38:33.385Z,5.70
2023-11-08T23:41:17.451Z,5.50
2023-11-08T23:44:09.360Z,5.20
2023-11-08T23:46:59.469Z,5.20
2023-11-08T23:49:48.818Z,5.40
2023-11-08T23:52:39.174Z,5.50
2023-11-08T23:55:42.849Z,5.70
2023-11-08T23:58:22.630Z,5.10
